Aérodrome :
LOGIN :

S'inscrire | Disclaimer

   EN    FR    IT 

 










Légende :    VFR   VFR Marginal   IFR   IFR Intensif   IFR Très Intensif
Visi : 
Plafond : 
>= 8 km
>= 3000ft
5 à 8 km
1000 à 3000 ft
1500m à 5 km
500 à 1000 ft
800 à 1500m
200 à 500 ft
< 800m
< 200 ft
Symboles :   Orages  Brouillard  Fortes neiges  Fortes précipitations  Vent > 20 kt
SIGMETs :   Divers  Orages  Givrage  Turbulence  Onde Orograph.  Cendres Volcan.







- Altitude de l'aérodrome : 584 ft
- Voir les cartes d'approche


LFPV - Villacoublay Vélizy

DERNIER METAR :
  • 170400Z AUTO 24007KT CAVOK 05/04 Q1007 TEMPO BKN012

METARs EXPIRÉS :
  • 170330Z AUTO 25007KT 9999 FEW027 BKN041 BKN047 05/04 Q1007 TEMPO BKN012
  • 170300Z AUTO 24007KT 9999 BKN043 BKN064 05/04 Q1007 TEMPO BKN012
  • 170230Z AUTO 23006KT CAVOK 05/04 Q1007 TEMPO BKN012
  • 170200Z AUTO 27005KT 9999 FEW040 BKN048 BKN058 05/04 Q1007
  • 170130Z AUTO 29007KT 9999 -RA SCT007/// BKN014/// BKN033/// ///TCU 06/05 Q1007 BECMG 22012KT FEW010 SCT030

TAF TAF LFPV
Valide du 17 à 03h jusqu'au 18 à 03h UTC


170200Z 1703/1803 25010KT 9999 FEW010 SCT030
TEMPO 1704/1706 BKN012
BECMG 1707/1709 BKN020
TEMPO 1710/1715 BKN020TCU
PROB30
TEMPO 1713/1715 30015G25KT 4000 SHRA
BECMG 1716/1719 31005KT CAVOK
Pas de NOTAMs connus pour ce terrain.



MET'MAP, la Météo Aéronautique d'un coup d'oeil ! - Copyright ORBIFLY Décembre 2007 - Disclaimer

ORBIFLY MET'MAP TEAM :

Programmation & Développement : Alexandra Zaïnal
Conception & Développement : Baudouin d'Aumeries
Co-Programmation & Développement : Marc-Olivier Méhu
Soutien technique & logistique : Manuel Goepfert

Contact : metmap@orbifly.com




SOURCES & CREDITS :

   NOAA